createdAt,value
2023-07-07T00:00:59.189Z,12.93
2023-07-07T00:03:27.440Z,13.75
2023-07-07T00:05:55.677Z,13.32
2023-07-07T00:08:23.726Z,13.00
2023-07-07T00:10:51.860Z,13.48
2023-07-07T00:13:20.104Z,13.35
2023-07-07T00:15:49.621Z,13.43
2023-07-07T00:18:27.497Z,12.57
2023-07-07T00:20:56.752Z,12.30
2023-07-07T00:23:25.533Z,13.02
2023-07-07T00:26:01.467Z,11.93
2023-07-07T00:28:29.523Z,12.75
2023-07-07T00:30:59.119Z,11.85
2023-07-07T00:33:27.987Z,12.10
2023-07-07T00:35:56.328Z,12.85
2023-07-07T00:38:25.258Z,12.43
2023-07-07T00:40:54.264Z,12.23
2023-07-07T00:43:23.279Z,12.00
2023-07-07T00:45:51.268Z,11.53
2023-07-07T00:48:23.598Z,11.87
2023-07-07T00:50:56.226Z,11.83
2023-07-07T00:53:25.466Z,12.53
2023-07-07T00:55:58.583Z,12.80
2023-07-07T00:58:28.558Z,11.97
2023-07-07T01:01:01.166Z,11.80
2023-07-07T01:03:35.350Z,11.80
2023-07-07T01:06:07.656Z,11.80
2023-07-07T01:08:36.836Z,11.97
2023-07-07T01:11:05.034Z,12.40
2023-07-07T01:13:33.920Z,12.30
2023-07-07T01:16:11.795Z,12.47
2023-07-07T01:18:47.947Z,12.20
2023-07-07T01:21:30.690Z,13.00
2023-07-07T01:24:20.129Z,11.70
2023-07-07T01:27:00.008Z,11.83
2023-07-07T01:29:58.576Z,12.27
2023-07-07T01:32:31.545Z,11.53
2023-07-07T01:35:06.120Z,12.00
2023-07-07T01:37:34.165Z,11.90
2023-07-07T01:40:04.806Z,11.30
2023-07-07T01:42:38.515Z,11.93
2023-07-07T01:45:15.058Z,11.40
2023-07-07T01:47:53.269Z,11.80
2023-07-07T01:50:26.623Z,11.73
2023-07-07T01:52:58.107Z,11.77
2023-07-07T01:55:33.042Z,13.03
2023-07-07T01:58:03.434Z,13.10
2023-07-07T02:00:32.697Z,12.27
2023-07-07T02:03:03.303Z,13.27
2023-07-07T02:05:32.348Z,12.47
2023-07-07T02:08:00.813Z,12.90
2023-07-07T02:10:28.863Z,11.87
2023-07-07T02:12:56.972Z,11.83
2023-07-07T02:15:25.046Z,12.13
2023-07-07T02:17:53.118Z,11.60
2023-07-07T02:20:22.562Z,12.60
2023-07-07T02:22:50.583Z,12.10
2023-07-07T02:25:18.732Z,12.00
2023-07-07T02:27:46.751Z,11.70
2023-07-07T02:30:15.281Z,13.40
2023-07-07T02:32:43.386Z,12.17
2023-07-07T02:35:12.502Z,12.40
2023-07-07T02:37:41.947Z,12.97
2023-07-07T02:40:11.608Z,12.60
2023-07-07T02:42:40.039Z,14.20
2023-07-07T02:45:08.581Z,13.33
2023-07-07T02:47:36.650Z,14.53
2023-07-07T02:50:06.129Z,14.33
2023-07-07T02:52:34.163Z,13.80
2023-07-07T02:55:03.592Z,15.13
2023-07-07T02:57:32.473Z,14.30
2023-07-07T03:00:00.609Z,14.70
2023-07-07T03:02:28.714Z,13.87
2023-07-07T03:04:56.701Z,13.83
2023-07-07T03:07:24.720Z,14.37
2023-07-07T03:09:52.746Z,14.13
2023-07-07T03:12:22.102Z,13.97
2023-07-07T03:14:50.695Z,13.00
2023-07-07T03:17:18.746Z,13.43
2023-07-07T03:19:46.789Z,12.73
2023-07-07T03:22:14.889Z,12.60
2023-07-07T03:24:42.897Z,12.23
2023-07-07T03:27:11.014Z,13.63
2023-07-07T03:29:40.409Z,12.80
2023-07-07T03:32:09.578Z,11.87
2023-07-07T03:34:38.222Z,12.63
2023-07-07T03:37:06.891Z,13.50
2023-07-07T03:39:35.005Z,12.10
2023-07-07T03:42:03.268Z,12.57
2023-07-07T03:44:31.954Z,12.00
2023-07-07T03:47:04.113Z,12.37
2023-07-07T03:49:33.304Z,12.53
2023-07-07T03:52:01.332Z,12.00
2023-07-07T03:54:29.378Z,12.20
2023-07-07T03:56:59.273Z,11.83
2023-07-07T03:59:28.707Z,13.87
2023-07-07T04:01:56.718Z,12.97
2023-07-07T04:04:27.317Z,13.13
2023-07-07T04:06:57.797Z,13.20
2023-07-07T04:09:26.106Z,12.93
2023-07-07T04:11:54.147Z,12.33
2023-07-07T04:14:22.167Z,13.27
2023-07-07T04:16:50.247Z,13.07
2023-07-07T04:19:18.406Z,12.80
2023-07-07T04:21:47.799Z,14.40
2023-07-07T04:24:15.810Z,15.30
2023-07-07T04:26:45.013Z,13.90
2023-07-07T04:29:13.147Z,14.70
2023-07-07T04:31:46.242Z,15.45
2023-07-07T04:34:15.092Z,14.65
2023-07-07T04:36:45.908Z,16.45
2023-07-07T04:39:15.985Z,16.10
2023-07-07T04:41:43.991Z,16.85
2023-07-07T04:44:12.041Z,17.55
2023-07-07T04:46:41.743Z,18.02
2023-07-07T04:49:12.407Z,17.60
2023-07-07T04:51:42.490Z,18.90
2023-07-07T04:54:14.775Z,18.95
2023-07-07T04:56:45.684Z,19.50
2023-07-07T04:59:14.103Z,19.50
2023-07-07T05:01:42.945Z,20.58
2023-07-07T05:04:12.098Z,19.38
2023-07-07T05:06:41.422Z,20.98
2023-07-07T05:09:11.250Z,20.25
2023-07-07T05:11:39.355Z,22.08
2023-07-07T05:14:08.840Z,20.25
2023-07-07T05:16:39.698Z,19.95
2023-07-07T05:19:08.899Z,20.08
2023-07-07T05:21:37.229Z,20.13
2023-07-07T05:24:05.995Z,20.05
2023-07-07T05:26:34.076Z,20.45
2023-07-07T05:29:03.486Z,20.60
2023-07-07T05:31:33.507Z,19.80
2023-07-07T05:34:01.755Z,21.02
2023-07-07T05:36:30.032Z,20.90
2023-07-07T05:38:58.633Z,20.00
2023-07-07T05:41:26.712Z,19.80
2023-07-07T05:43:56.935Z,19.88
2023-07-07T05:46:25.219Z,20.02
2023-07-07T05:48:55.227Z,20.52
2023-07-07T05:51:23.196Z,21.85
2023-07-07T05:53:51.230Z,20.60
2023-07-07T05:56:21.542Z,20.48
2023-07-07T05:58:50.093Z,20.75
2023-07-07T06:01:18.516Z,20.30
2023-07-07T06:03:47.672Z,20.98
2023-07-07T06:06:17.150Z,20.55
2023-07-07T06:08:45.304Z,21.27
2023-07-07T06:11:13.371Z,20.95
2023-07-07T06:13:41.436Z,20.90
2023-07-07T06:16:09.985Z,20.77
2023-07-07T06:18:38.066Z,21.48
2023-07-07T06:21:06.495Z,21.33
2023-07-07T06:23:35.851Z,22.58
2023-07-07T06:26:03.847Z,22.17
2023-07-07T06:28:32.426Z,21.30
2023-07-07T06:31:00.616Z,21.55
2023-07-07T06:33:30.548Z,21.90
2023-07-07T06:35:58.679Z,21.70
2023-07-07T06:38:26.766Z,20.90
2023-07-07T06:40:56.572Z,21.48
2023-07-07T06:43:24.819Z,20.58
2023-07-07T06:45:57.403Z,19.90
2023-07-07T06:48:25.423Z,19.20
2023-07-07T06:50:53.757Z,19.08
2023-07-07T06:53:21.853Z,18.48
2023-07-07T06:55:49.911Z,19.25
2023-07-07T06:58:19.304Z,20.20
2023-07-07T07:00:47.400Z,19.05
2023-07-07T07:03:15.511Z,19.63
2023-07-07T07:05:43.687Z,19.90
2023-07-07T07:08:11.672Z,19.08
2023-07-07T07:10:39.755Z,19.48
2023-07-07T07:13:09.386Z,19.63
2023-07-07T07:15:38.953Z,19.60
2023-07-07T07:18:07.096Z,18.60
2023-07-07T07:20:35.198Z,18.85
2023-07-07T07:23:03.322Z,18.98
2023-07-07T07:25:31.521Z,17.70
2023-07-07T07:27:59.700Z,18.40
2023-07-07T07:30:27.742Z,18.83
2023-07-07T07:32:57.216Z,18.67
2023-07-07T07:35:25.310Z,17.88
2023-07-07T07:37:53.267Z,18.48
2023-07-07T07:40:24.252Z,18.17
2023-07-07T07:42:52.825Z,18.38
2023-07-07T07:45:23.105Z,18.30
2023-07-07T07:47:53.124Z,18.13
2023-07-07T07:50:24.752Z,17.48
2023-07-07T07:52:52.978Z,18.33
2023-07-07T07:55:21.017Z,19.30
2023-07-07T07:57:49.228Z,17.85
2023-07-07T08:00:18.009Z,16.92
2023-07-07T08:02:46.147Z,16.05
2023-07-07T08:05:14.743Z,17.23
2023-07-07T08:07:44.171Z,16.45
2023-07-07T08:10:12.693Z,16.60
2023-07-07T08:12:40.758Z,17.00
2023-07-07T08:15:12.068Z,16.33
2023-07-07T08:17:40.594Z,16.40
2023-07-07T08:20:18.292Z,16.77
2023-07-07T08:22:47.646Z,15.15
2023-07-07T08:25:15.780Z,15.13
2023-07-07T08:28:06.871Z,14.95
2023-07-07T08:30:33.284Z,14.95
2023-07-07T08:33:01.482Z,14.25
2023-07-07T08:35:29.703Z,14.20
2023-07-07T08:37:59.214Z,14.88
2023-07-07T08:40:36.285Z,13.13
2023-07-07T08:43:04.469Z,14.13
2023-07-07T08:45:32.747Z,13.48
2023-07-07T08:48:09.663Z,13.85
2023-07-07T08:50:43.397Z,14.27
2023-07-07T08:53:36.840Z,14.02
2023-07-07T08:56:12.237Z,13.65
2023-07-07T08:58:51.585Z,14.85
2023-07-07T09:01:32.966Z,14.02
2023-07-07T09:04:19.737Z,13.57
2023-07-07T09:07:02.098Z,13.40
2023-07-07T09:10:00.071Z,37.70
2023-07-07T09:12:37.429Z,22.48
2023-07-07T09:15:15.384Z,16.33
2023-07-07T09:17:49.178Z,15.15
2023-07-07T09:20:21.833Z,13.73
2023-07-07T09:22:56.339Z,13.45
2023-07-07T09:25:44.613Z,14.70
2023-07-07T09:28:18.476Z,13.95
2023-07-07T09:30:50.106Z,13.95
2023-07-07T09:33:23.359Z,12.98
2023-07-07T09:36:02.460Z,12.05
2023-07-07T09:38:42.568Z,12.70
2023-07-07T09:41:20.301Z,12.57
2023-07-07T09:44:11.023Z,13.50
2023-07-07T09:46:45.864Z,11.80
2023-07-07T09:49:28.713Z,11.73
2023-07-07T09:52:08.581Z,11.27
2023-07-07T09:54:37.323Z,12.63
2023-07-07T09:57:18.794Z,12.30
2023-07-07T09:59:52.702Z,12.77
2023-07-07T10:02:24.475Z,12.73
2023-07-07T10:04:58.730Z,12.85
2023-07-07T10:07:29.313Z,11.77
2023-07-07T10:10:00.477Z,12.45
2023-07-07T10:12:35.236Z,12.00
2023-07-07T10:15:47.195Z,13.05
2023-07-07T10:18:19.720Z,13.07
2023-07-07T10:20:47.774Z,12.93
2023-07-07T10:23:17.013Z,12.75
2023-07-07T10:25:47.737Z,12.95
2023-07-07T10:28:20.162Z,12.00
2023-07-07T10:30:49.915Z,12.20
2023-07-07T10:33:21.690Z,13.05
2023-07-07T10:35:50.795Z,12.40
2023-07-07T10:38:18.863Z,12.27
2023-07-07T10:40:49.541Z,12.93
2023-07-07T10:43:22.983Z,11.93
2023-07-07T10:45:51.139Z,12.23
2023-07-07T10:48:19.397Z,11.27
2023-07-07T10:51:08.543Z,11.73
2023-07-07T10:53:50.484Z,12.60
2023-07-07T10:56:29.536Z,12.63
2023-07-07T10:59:32.957Z,12.30
2023-07-07T11:02:18.169Z,11.63
2023-07-07T11:05:21.756Z,12.48
2023-07-07T11:08:01.501Z,12.07
2023-07-07T11:11:00.104Z,11.40
2023-07-07T11:13:45.512Z,9.40
2023-07-07T11:16:20.641Z,8.57
2023-07-07T11:19:16.171Z,8.60
2023-07-07T11:21:53.320Z,6.18
2023-07-07T11:24:48.629Z,6.07
2023-07-07T11:27:47.684Z,6.90
2023-07-07T11:30:23.665Z,7.32
2023-07-07T11:33:02.968Z,7.80
2023-07-07T11:35:49.785Z,7.68
2023-07-07T11:38:46.433Z,6.90
2023-07-07T11:41:18.500Z,6.40
2023-07-07T11:44:02.972Z,6.55
2023-07-07T11:46:47.759Z,6.40
2023-07-07T11:49:31.357Z,6.47
2023-07-07T11:52:16.828Z,6.75
2023-07-07T11:55:07.799Z,6.93
2023-07-07T11:58:03.291Z,6.65
2023-07-07T12:00:44.097Z,6.70
2023-07-07T12:03:36.341Z,7.15
2023-07-07T12:06:14.258Z,8.13
2023-07-07T12:08:49.587Z,10.13
2023-07-07T12:11:20.065Z,3.05
2023-07-07T12:14:01.825Z,1.90
2023-07-07T12:16:31.807Z,2.60
2023-07-07T12:19:18.076Z,1.80
2023-07-07T12:21:48.468Z,2.35
2023-07-07T12:24:27.001Z,1.80
2023-07-07T12:27:09.974Z,1.85
2023-07-07T12:29:40.674Z,1.70
2023-07-07T12:32:10.093Z,2.15
2023-07-07T12:34:42.524Z,2.10
2023-07-07T12:37:18.994Z,2.42
2023-07-07T12:40:05.397Z,2.45
2023-07-07T12:42:34.695Z,2.03
2023-07-07T12:45:20.093Z,2.10
2023-07-07T12:47:54.430Z,1.98
2023-07-07T12:50:30.428Z,2.25
2023-07-07T12:53:04.459Z,1.45
2023-07-07T12:55:39.674Z,1.85
2023-07-07T12:58:32.627Z,2.13
2023-07-07T13:01:07.677Z,2.08
2023-07-07T13:03:44.800Z,2.10
2023-07-07T13:06:38.167Z,2.42
2023-07-07T13:09:21.810Z,1.90
2023-07-07T13:11:53.443Z,1.92
2023-07-07T13:14:45.398Z,2.47
2023-07-07T13:17:17.547Z,2.45
2023-07-07T13:19:51.360Z,1.75
2023-07-07T13:22:25.649Z,2.40
2023-07-07T13:24:58.945Z,2.38
2023-07-07T13:27:30.821Z,2.53
2023-07-07T13:30:03.311Z,1.83
2023-07-07T13:32:33.351Z,2.30
2023-07-07T13:35:04.095Z,2.13
2023-07-07T13:37:34.628Z,2.08
2023-07-07T13:40:02.788Z,2.08
2023-07-07T13:42:33.725Z,1.98
2023-07-07T13:45:04.790Z,1.65
2023-07-07T13:47:33.696Z,2.08
2023-07-07T13:50:06.441Z,2.08
2023-07-07T13:52:36.450Z,1.83
2023-07-07T13:55:04.644Z,1.65
2023-07-07T13:57:35.678Z,2.30
2023-07-07T14:00:04.011Z,1.98
2023-07-07T14:02:32.557Z,2.08
2023-07-07T14:05:05.588Z,2.25
2023-07-07T14:07:38.597Z,1.63
2023-07-07T14:10:22.724Z,1.98
2023-07-07T14:12:52.200Z,2.28
2023-07-07T14:15:22.928Z,1.95
2023-07-07T14:20:26.307Z,1.50
2023-07-07T14:22:55.281Z,1.95
2023-07-07T14:25:24.645Z,1.83
2023-07-07T14:27:57.630Z,5.97
2023-07-07T14:30:27.101Z,8.10
2023-07-07T14:33:01.137Z,8.43
2023-07-07T14:35:33.016Z,8.95
2023-07-07T14:38:05.893Z,8.43
2023-07-07T14:40:36.166Z,9.18
2023-07-07T14:43:21.068Z,9.20
2023-07-07T14:45:50.718Z,9.90
2023-07-07T14:48:21.113Z,10.43
2023-07-07T14:50:50.066Z,8.90
2023-07-07T14:53:20.112Z,9.50
2023-07-07T14:55:52.897Z,10.10
2023-07-07T14:58:26.829Z,9.40
2023-07-07T15:01:06.627Z,9.95
2023-07-07T15:03:39.344Z,10.18
2023-07-07T15:06:29.709Z,9.50
2023-07-07T15:08:58.709Z,10.20
2023-07-07T15:11:34.506Z,10.73
2023-07-07T15:14:05.944Z,10.75
2023-07-07T15:16:34.780Z,10.60
2023-07-07T15:19:14.341Z,11.77
2023-07-07T15:21:42.413Z,11.50
2023-07-07T15:24:10.494Z,12.20
2023-07-07T15:26:39.405Z,11.52
2023-07-07T15:29:16.293Z,11.65
2023-07-07T15:31:44.649Z,12.38
2023-07-07T15:34:12.806Z,12.32
2023-07-07T15:36:41.035Z,12.05
2023-07-07T15:39:14.192Z,11.25
2023-07-07T15:41:42.789Z,14.90
2023-07-07T15:44:12.242Z,12.88
2023-07-07T15:46:48.296Z,11.60
2023-07-07T15:49:20.590Z,12.02
2023-07-07T15:51:49.418Z,11.82
2023-07-07T15:54:19.482Z,11.15
2023-07-07T15:56:50.022Z,10.50
2023-07-07T15:59:21.411Z,10.38
2023-07-07T16:01:51.059Z,10.48
2023-07-07T16:04:19.625Z,11.45
2023-07-07T16:06:48.099Z,10.85
2023-07-07T16:09:18.261Z,10.43
2023-07-07T16:11:46.908Z,9.65
2023-07-07T16:14:17.056Z,9.90
2023-07-07T16:16:49.433Z,8.95
2023-07-07T16:19:19.878Z,9.90
2023-07-07T16:21:48.667Z,9.77
2023-07-07T16:24:17.220Z,9.25
2023-07-07T16:26:48.045Z,9.63
2023-07-07T16:29:19.170Z,10.48
2023-07-07T16:31:48.652Z,10.00
2023-07-07T16:34:18.997Z,10.20
2023-07-07T16:36:47.566Z,10.88
2023-07-07T16:39:17.983Z,10.60
2023-07-07T16:41:46.451Z,10.20
2023-07-07T16:44:15.272Z,10.60
2023-07-07T16:46:44.071Z,10.90
2023-07-07T16:49:15.773Z,10.18
2023-07-07T16:51:44.113Z,10.70
2023-07-07T16:54:12.477Z,10.95
2023-07-07T16:56:43.350Z,10.63
2023-07-07T16:59:17.085Z,10.70
2023-07-07T17:01:47.634Z,11.10
2023-07-07T17:04:17.440Z,10.10
2023-07-07T17:06:46.023Z,10.90
2023-07-07T17:09:17.302Z,10.65
2023-07-07T17:11:46.165Z,10.80
2023-07-07T17:14:14.573Z,10.98
2023-07-07T17:16:43.531Z,11.02
2023-07-07T17:19:18.726Z,11.13
2023-07-07T17:21:46.864Z,10.88
2023-07-07T17:24:14.894Z,10.73
2023-07-07T17:26:43.874Z,10.70
2023-07-07T17:29:14.623Z,10.38
2023-07-07T17:31:42.702Z,10.60
2023-07-07T17:34:10.901Z,10.45
2023-07-07T17:36:44.968Z,10.50
2023-07-07T17:39:14.938Z,10.23
2023-07-07T17:41:43.787Z,9.70
2023-07-07T17:44:12.176Z,10.48
2023-07-07T17:46:41.513Z,10.27
2023-07-07T17:49:15.698Z,10.07
2023-07-07T17:51:45.441Z,10.20
2023-07-07T17:54:13.890Z,9.75
2023-07-07T17:56:43.096Z,10.07
2023-07-07T17:59:18.640Z,9.98
2023-07-07T18:01:47.121Z,10.45
2023-07-07T18:04:15.405Z,9.98
2023-07-07T18:06:49.682Z,10.88
2023-07-07T18:09:17.871Z,9.82
2023-07-07T18:11:45.935Z,10.43
2023-07-07T18:14:14.028Z,10.48
2023-07-07T18:16:45.907Z,10.65
2023-07-07T18:19:29.910Z,10.32
2023-07-07T18:22:12.248Z,10.45
2023-07-07T18:24:42.562Z,10.90
2023-07-07T18:27:11.899Z,13.07
2023-07-07T18:29:40.033Z,10.82
2023-07-07T18:32:11.779Z,10.88
2023-07-07T18:34:40.104Z,10.48
2023-07-07T18:37:12.765Z,10.80
2023-07-07T18:39:41.412Z,10.68
2023-07-07T18:42:11.265Z,10.60
2023-07-07T18:44:39.547Z,10.50
2023-07-07T18:47:16.277Z,11.38
2023-07-07T18:49:46.033Z,11.85
2023-07-07T18:52:16.186Z,11.00
2023-07-07T18:54:44.357Z,11.40
2023-07-07T18:57:12.729Z,11.15
2023-07-07T18:59:40.792Z,11.10
2023-07-07T19:02:15.190Z,11.55
2023-07-07T19:04:43.272Z,11.00
2023-07-07T19:07:11.287Z,11.07
2023-07-07T19:09:42.373Z,11.70
2023-07-07T19:12:12.027Z,11.60
2023-07-07T19:14:40.092Z,11.23
2023-07-07T19:17:11.081Z,11.35
2023-07-07T19:19:39.138Z,10.48
2023-07-07T19:22:10.904Z,12.02
2023-07-07T19:24:40.281Z,11.32
2023-07-07T19:27:11.486Z,11.35
2023-07-07T19:29:39.472Z,12.52
2023-07-07T19:32:15.819Z,11.68
2023-07-07T19:34:43.840Z,11.20
2023-07-07T19:37:12.062Z,11.27
2023-07-07T19:39:43.161Z,12.05
2023-07-07T19:42:12.977Z,10.95
2023-07-07T19:44:42.445Z,11.90
2023-07-07T19:47:13.751Z,11.40
2023-07-07T19:49:42.410Z,11.63
2023-07-07T19:52:16.717Z,11.95
2023-07-07T19:54:46.777Z,12.50
2023-07-07T19:57:22.849Z,12.60
2023-07-07T19:59:51.696Z,11.90
2023-07-07T20:02:21.379Z,11.60
2023-07-07T20:04:50.687Z,12.02
2023-07-07T20:07:18.800Z,12.02
2023-07-07T20:09:48.495Z,12.20
2023-07-07T20:12:18.697Z,12.85
2023-07-07T20:14:47.015Z,12.27
2023-07-07T20:17:15.188Z,11.70
2023-07-07T20:19:43.254Z,12.30
2023-07-07T20:22:14.130Z,15.32
2023-07-07T20:24:42.554Z,12.93
2023-07-07T20:27:13.639Z,13.45
2023-07-07T20:29:41.995Z,13.48
2023-07-07T20:32:15.479Z,13.90
2023-07-07T20:34:43.600Z,11.38
2023-07-07T20:37:13.860Z,11.95
2023-07-07T20:39:42.077Z,11.68
2023-07-07T20:42:14.003Z,10.50
2023-07-07T20:44:43.130Z,10.80
2023-07-07T20:47:13.529Z,12.77
2023-07-07T20:49:42.152Z,9.73
2023-07-07T20:52:12.487Z,9.30
2023-07-07T20:54:40.589Z,10.02
2023-07-07T20:59:44.004Z,9.90
2023-07-07T21:02:14.355Z,9.32
2023-07-07T21:04:42.633Z,9.07
2023-07-07T21:07:13.077Z,9.38
2023-07-07T21:09:41.092Z,9.13
2023-07-07T21:12:10.611Z,9.93
2023-07-07T21:14:40.191Z,8.48
2023-07-07T21:17:09.908Z,8.75
2023-07-07T21:19:37.946Z,8.40
2023-07-07T21:22:11.354Z,8.57
2023-07-07T21:24:39.337Z,8.20
2023-07-07T21:27:09.889Z,8.93
2023-07-07T21:29:43.204Z,8.70
2023-07-07T21:32:12.579Z,8.07
2023-07-07T21:34:40.556Z,7.93
2023-07-07T21:37:11.809Z,7.97
2023-07-07T21:39:39.783Z,7.72
2023-07-07T21:42:12.888Z,7.90
2023-07-07T21:44:45.452Z,7.85
2023-07-07T21:47:15.588Z,7.38
2023-07-07T21:49:44.982Z,8.20
2023-07-07T21:52:15.601Z,7.93
2023-07-07T21:54:44.315Z,7.72
2023-07-07T21:57:30.208Z,8.10
2023-07-07T21:59:59.787Z,7.68
2023-07-07T22:02:27.976Z,7.72
2023-07-07T22:04:56.146Z,8.43
2023-07-07T22:07:24.320Z,7.70
2023-07-07T22:09:52.309Z,7.95
2023-07-07T22:12:20.342Z,7.97
2023-07-07T22:14:48.606Z,8.25
2023-07-07T22:17:18.038Z,7.93
2023-07-07T22:19:46.099Z,8.25
2023-07-07T22:22:14.095Z,8.30
2023-07-07T22:24:42.447Z,8.20
2023-07-07T22:27:15.673Z,7.90
2023-07-07T22:29:44.667Z,8.13
2023-07-07T22:32:14.392Z,8.45
2023-07-07T22:34:43.756Z,8.13
2023-07-07T22:37:13.704Z,7.80
2023-07-07T22:39:41.794Z,8.20
2023-07-07T22:42:14.009Z,7.93
2023-07-07T22:44:42.165Z,8.32
2023-07-07T22:47:11.264Z,8.30
2023-07-07T22:49:39.811Z,8.18
2023-07-07T22:52:13.806Z,8.35
2023-07-07T22:54:41.987Z,8.57
2023-07-07T22:57:12.481Z,7.95
2023-07-07T22:59:40.465Z,8.38
2023-07-07T23:02:11.561Z,8.60
2023-07-07T23:04:39.559Z,9.18
2023-07-07T23:07:13.038Z,9.00
2023-07-07T23:09:46.028Z,8.63
2023-07-07T23:12:16.452Z,9.55
2023-07-07T23:14:45.485Z,9.77
2023-07-07T23:17:20.623Z,10.07
2023-07-07T23:19:54.713Z,9.93
2023-07-07T23:22:28.159Z,10.07
2023-07-07T23:24:59.698Z,10.47
2023-07-07T23:27:30.523Z,10.47
2023-07-07T23:30:02.804Z,11.23
2023-07-07T23:32:31.797Z,11.10
2023-07-07T23:34:59.780Z,12.53
2023-07-07T23:37:31.347Z,11.47
2023-07-07T23:39:59.528Z,13.20
2023-07-07T23:42:27.694Z,14.23
2023-07-07T23:44:56.342Z,14.03
2023-07-07T23:47:24.522Z,13.70
2023-07-07T23:49:53.501Z,13.97
2023-07-07T23:52:21.456Z,13.80
2023-07-07T23:54:50.870Z,13.47
2023-07-07T23:57:21.270Z,13.50
2023-07-07T23:59:49.281Z,14.30
